Time;durP1;ratioP1;P1;durP2;ratioP2;P2;SDS_P1;SDS_P2;PMS_P1;PMS_P2;Temp;Humidity;BMP_temperature;BMP_pressure;BME280_temperature;BME280_humidity;BME280_pressure;Samples;Min_cycle;Max_cycle;Signal;HPM_P1;HPM_P2
2021/11/08 00:02:22;;;;;;;;;;;7.60;96.20;;;;;;5012321;28;20333;-76
2021/11/08 00:04:48;;;;;;;;;;;7.60;96.20;;;;;;5013775;28;20088;-78
2021/11/08 00:07:15;;;;;;;;;;;7.50;96.20;;;;;;5013750;28;20024;-76
2021/11/08 00:09:43;;;;;;;;;;;7.50;96.30;;;;;;5017056;28;19909;-76
2021/11/08 00:12:09;;;;;;;;;;;7.50;96.30;;;;;;5017061;28;19924;-76
2021/11/08 00:14:35;;;;;;;;;;;7.50;96.20;;;;;;5016842;28;19909;-76
2021/11/08 00:22:26;;;;;;;;;;;7.60;96.20;;;;;;5016975;28;20337;-76
2021/11/08 00:24:52;;;;;;;;;;;7.60;96.20;;;;;;5016961;28;20004;-76
2021/11/08 00:27:18;;;;;;;;;;;7.50;96.10;;;;;;5016866;28;20052;-77
2021/11/08 00:29:44;;;;;;;;;;;7.50;96.10;;;;;;5016434;28;19910;-77
2021/11/08 00:32:10;;;;;;;;;;;7.40;96.00;;;;;;5016759;28;19910;-76
2021/11/08 00:34:35;;;;;;;;;;;7.30;96.00;;;;;;5016848;28;20004;-76
2021/11/08 00:37:01;;;;;;;;;;;7.30;95.90;;;;;;5016825;28;19955;-77
2021/11/08 00:39:26;;;;;;;;;;;7.20;95.90;;;;;;5016632;28;19936;-76
2021/11/08 00:41:52;;;;;;;;;;;7.20;96.00;;;;;;5016623;28;19922;-76
2021/11/08 00:44:18;;;;;;;;;;;7.20;96.10;;;;;;5014617;28;20381;-77
2021/11/08 00:46:44;;;;;;;;;;;7.20;96.20;;;;;;5016466;28;20024;-76
2021/11/08 00:49:10;;;;;;;;;;;7.20;96.20;;;;;;5016448;28;19909;-76
2021/11/08 00:51:39;;;;;;;;;;;7.20;96.30;;;;;;5016362;28;20457;-76
2021/11/08 00:54:09;;;;;;;;;;;7.20;96.30;;;;;;5015140;28;19916;-77
2021/11/08 00:56:35;;;;;;;;;;;7.20;96.70;;;;;;5016491;28;20259;-78
2021/11/08 00:59:00;;;;;;;;;;;7.20;96.40;;;;;;5015770;28;19983;-77
2021/11/08 01:01:26;;;;;;;;;;;7.20;96.40;;;;;;5016187;28;19937;-77
2021/11/08 01:03:52;;;;;;;;;;;7.20;96.50;;;;;;5016145;28;20297;-77
2021/11/08 01:06:18;;;;;;;;;;;7.20;96.50;;;;;;5016336;28;19956;-77
2021/11/08 01:08:44;;;;;;;;;;;7.20;96.50;;;;;;5016059;28;19913;-77
2021/11/08 01:11:10;;;;;;;;;;;7.20;96.40;;;;;;5016133;28;19909;-76
2021/11/08 01:13:36;;;;;;;;;;;7.10;96.40;;;;;;5015800;28;20282;-77
2021/11/08 01:16:03;;;;;;;;;;;7.10;96.30;;;;;;5015921;28;19992;-77
2021/11/08 01:18:28;;;;;;;;;;;7.10;96.30;;;;;;5015882;28;19910;-76
2021/11/08 01:20:54;;;;;;;;;;;7.10;96.30;;;;;;5015407;28;20024;-77
2021/11/08 01:23:27;;;;;;;;;;;7.10;96.40;;;;;;5015656;28;19917;-76
2021/11/08 01:26:04;;;;;;;;;;;7.10;96.40;;;;;;5015751;28;20341;-77
2021/11/08 01:28:47;;;;;;;;;;;7.10;96.30;;;;;;5015355;28;19909;-76
2021/11/08 01:31:14;;;;;;;;;;;7.00;96.30;;;;;;5015778;28;19913;-76
2021/11/08 01:33:46;;;;;;;;;;;7.00;96.30;;;;;;5014307;28;20342;-76
2021/11/08 01:36:14;;;;;;;;;;;7.00;96.40;;;;;;5015675;28;20000;-75
2021/11/08 01:38:48;;;;;;;;;;;7.00;96.50;;;;;;5014150;28;19909;-77
2021/11/08 01:41:19;;;;;;;;;;;7.10;96.50;;;;;;5015789;28;19955;-76
2021/11/08 01:43:46;;;;;;;;;;;7.20;96.50;;;;;;5015106;28;20297;-76
2021/11/08 01:46:11;;;;;;;;;;;7.30;96.50;;;;;;5015377;28;20388;-76
2021/11/08 01:48:37;;;;;;;;;;;7.30;96.50;;;;;;5015324;28;19910;-76
2021/11/08 01:51:03;;;;;;;;;;;7.30;96.40;;;;;;5015450;28;20362;-77
2021/11/08 01:53:29;;;;;;;;;;;7.40;96.50;;;;;;5015314;28;19910;-77
2021/11/08 01:55:55;;;;;;;;;;;7.50;96.50;;;;;;5014750;28;19910;-76
2021/11/08 01:58:21;;;;;;;;;;;7.50;96.50;;;;;;5014975;28;19928;-76
2021/11/08 02:00:48;;;;;;;;;;;7.50;96.50;;;;;;5015025;28;19957;-77
2021/11/08 02:03:15;;;;;;;;;;;7.50;96.50;;;;;;5013886;28;20325;-75
2021/11/08 02:05:41;;;;;;;;;;;7.60;96.40;;;;;;5014005;28;19976;-76
2021/11/08 02:08:07;;;;;;;;;;;7.60;96.40;;;;;;5015003;28;20354;-77
2021/11/08 02:10:32;;;;;;;;;;;7.60;96.40;;;;;;5014562;28;19913;-77
2021/11/08 02:12:58;;;;;;;;;;;7.60;96.40;;;;;;5015035;28;19978;-77
2021/11/08 02:15:23;;;;;;;;;;;7.60;96.40;;;;;;5015005;28;20019;-76
2021/11/08 02:17:49;;;;;;;;;;;7.70;96.30;;;;;;5014990;28;19909;-78
2021/11/08 02:20:15;;;;;;;;;;;7.60;96.20;;;;;;5014789;28;19909;-77
2021/11/08 02:22:42;;;;;;;;;;;7.50;96.20;;;;;;5014538;28;20354;-77
2021/11/08 02:25:09;;;;;;;;;;;7.40;96.20;;;;;;5014282;28;19910;-77
2021/11/08 02:27:36;;;;;;;;;;;7.30;96.20;;;;;;5013459;28;20337;-77
2021/11/08 02:30:02;;;;;;;;;;;7.20;96.20;;;;;;5013418;28;20337;-77
2021/11/08 02:32:29;;;;;;;;;;;7.10;96.20;;;;;;5013955;28;19910;-77
2021/11/08 02:34:54;;;;;;;;;;;7.10;96.20;;;;;;5014488;28;20357;-77
2021/11/08 02:37:20;;;;;;;;;;;7.00;96.20;;;;;;5014472;28;19964;-77
2021/11/08 02:39:48;;;;;;;;;;;6.90;96.20;;;;;;5012824;28;19916;-77
2021/11/08 02:42:17;;;;;;;;;;;6.90;96.20;;;;;;5013202;28;20004;-77
2021/11/08 02:44:43;;;;;;;;;;;6.90;96.20;;;;;;5018596;28;20000;-77
2021/11/08 02:47:08;;;;;;;;;;;6.90;96.20;;;;;;5014618;28;19955;-77
2021/11/08 02:49:39;;;;;;;;;;;6.90;96.30;;;;;;5013173;28;19909;-76
2021/11/08 02:52:06;;;;;;;;;;;6.90;96.30;;;;;;5014534;28;19910;-77
2021/11/08 02:54:36;;;;;;;;;;;6.90;96.40;;;;;;5013807;28;20024;-76
2021/11/08 02:57:02;;;;;;;;;;;6.90;96.40;;;;;;5014346;28;19960;-78
2021/11/08 02:59:30;;;;;;;;;;;6.90;96.50;;;;;;5014201;28;20299;-75
2021/11/08 03:01:56;;;;;;;;;;;6.90;96.50;;;;;;5013053;28;19917;-77
2021/11/08 03:04:29;;;;;;;;;;;6.80;96.50;;;;;;5014064;28;19946;-77
2021/11/08 03:06:55;;;;;;;;;;;6.80;96.50;;;;;;5014132;28;19909;-76
2021/11/08 03:09:29;;;;;;;;;;;6.80;96.50;;;;;;5013666;28;20269;-76
2021/11/08 03:11:54;;;;;;;;;;;6.70;96.40;;;;;;5014238;28;19913;-77
2021/11/08 03:14:24;;;;;;;;;;;6.70;96.50;;;;;;5014131;28;19921;-77
2021/11/08 03:16:55;;;;;;;;;;;6.70;96.50;;;;;;5013983;28;20004;-77
2021/11/08 03:21:50;;;;;;;;;;;6.70;96.40;;;;;;5014041;28;19921;-77
2021/11/08 03:24:23;;;;;;;;;;;6.70;96.50;;;;;;5012911;28;21275;-77
2021/11/08 03:26:52;;;;;;;;;;;6.70;96.50;;;;;;5013896;28;19956;-77
2021/11/08 03:29:19;;;;;;;;;;;6.70;96.40;;;;;;5013918;28;19937;-78
2021/11/08 03:31:48;;;;;;;;;;;6.60;96.40;;;;;;5013755;28;19996;-77
2021/11/08 03:34:15;;;;;;;;;;;6.60;96.50;;;;;;5013883;28;19909;-77
2021/11/08 03:36:40;;;;;;;;;;;6.60;96.50;;;;;;5012641;28;19910;-78
2021/11/08 03:39:06;;;;;;;;;;;6.60;96.50;;;;;;5013339;28;19967;-77
2021/11/08 03:41:32;;;;;;;;;;;6.60;96.50;;;;;;5013868;28;19956;-77
2021/11/08 03:43:58;;;;;;;;;;;6.60;96.50;;;;;;5016379;28;20052;-77
2021/11/08 03:46:24;;;;;;;;;;;6.60;96.50;;;;;;5017646;28;19932;-77
2021/11/08 03:48:49;;;;;;;;;;;6.60;96.50;;;;;;5017749;28;20378;-78
2021/11/08 03:51:15;;;;;;;;;;;6.60;96.50;;;;;;5017408;28;19909;-77
2021/11/08 03:53:40;;;;;;;;;;;6.50;96.50;;;;;;5015853;28;19915;-77
2021/11/08 03:56:06;;;;;;;;;;;6.50;96.50;;;;;;5017563;28;19936;-77
2021/11/08 03:58:32;;;;;;;;;;;6.50;96.50;;;;;;5017393;28;19944;-77
2021/11/08 04:00:58;;;;;;;;;;;6.50;96.50;;;;;;5017342;28;19914;-78
2021/11/08 04:03:24;;;;;;;;;;;6.50;96.50;;;;;;5017255;28;19924;-77
2021/11/08 04:05:50;;;;;;;;;;;6.50;96.50;;;;;;5017438;28;19996;-77
2021/11/08 04:08:18;;;;;;;;;;;6.50;96.60;;;;;;5016836;28;20320;-77
2021/11/08 04:10:44;;;;;;;;;;;6.40;96.60;;;;;;5017070;28;19917;-77
2021/11/08 04:13:10;;;;;;;;;;;6.50;96.60;;;;;;5016139;28;20323;-77
2021/11/08 04:15:38;;;;;;;;;;;6.40;96.60;;;;;;5017195;28;19910;-76
2021/11/08 04:18:06;;;;;;;;;;;6.40;96.60;;;;;;5017189;28;19936;-76
2021/11/08 04:20:32;;;;;;;;;;;6.40;96.60;;;;;;5016908;28;19910;-77
2021/11/08 04:22:57;;;;;;;;;;;6.40;96.60;;;;;;5016542;28;19963;-77
2021/11/08 04:25:24;;;;;;;;;;;6.40;96.60;;;;;;5016899;28;20281;-77
2021/11/08 04:27:51;;;;;;;;;;;6.40;96.60;;;;;;5016977;28;19909;-78
2021/11/08 04:30:17;;;;;;;;;;;6.40;96.60;;;;;;5016764;28;19909;-77
2021/11/08 04:33:02;;;;;;;;;;;6.40;96.60;;;;;;5016806;28;19914;-77
2021/11/08 04:40:44;;;;;;;;;;;6.40;96.60;;;;;;5016994;28;19953;-77
2021/11/08 04:56:32;;;;;;;;;;;6.50;96.60;;;;;;5015626;28;19909;-78
2021/11/08 05:21:19;;;;;;;;;;;6.50;96.60;;;;;;5015717;28;20011;-78
2021/11/08 05:31:43;;;;;;;;;;;6.50;96.60;;;;;;5015772;28;19909;-77
2021/11/08 05:34:08;;;;;;;;;;;6.40;96.60;;;;;;5013741;28;20394;-75
2021/11/08 05:36:34;;;;;;;;;;;6.40;96.50;;;;;;5015634;28;19967;-77
2021/11/08 05:39:00;;;;;;;;;;;6.40;96.60;;;;;;5015683;28;19921;-77
2021/11/08 05:41:27;;;;;;;;;;;6.40;96.60;;;;;;5015360;28;20008;-77
2021/11/08 05:43:52;;;;;;;;;;;6.40;96.60;;;;;;5015679;28;19919;-77
2021/11/08 05:46:19;;;;;;;;;;;6.40;96.60;;;;;;5014213;28;19993;-77
2021/11/08 05:48:45;;;;;;;;;;;6.30;96.50;;;;;;5014999;28;19914;-78
2021/11/08 05:51:11;;;;;;;;;;;6.30;96.60;;;;;;5015471;28;20362;-78
2021/11/08 05:53:37;;;;;;;;;;;6.40;96.60;;;;;;5015402;28;20013;-77
2021/11/08 05:56:15;;;;;;;;;;;6.30;96.60;;;;;;5015316;28;19913;-77
2021/11/08 05:58:59;;;;;;;;;;;6.30;96.50;;;;;;5015094;28;20337;-78
2021/11/08 06:50:31;;;;;;;;;;;6.80;96.50;;;;;;5014607;28;19955;-80
2021/11/08 06:53:03;;;;;;;;;;;6.80;96.50;;;;;;5013222;28;19976;-79
2021/11/08 06:55:28;;;;;;;;;;;6.80;96.60;;;;;;5014252;28;19949;-80
2021/11/08 06:58:01;;;;;;;;;;;6.70;96.50;;;;;;5014038;28;19983;-81
2021/11/08 07:00:27;;;;;;;;;;;6.70;96.60;;;;;;5013893;28;20366;-79
2021/11/08 07:02:52;;;;;;;;;;;6.70;96.60;;;;;;5014114;28;19921;-77
2021/11/08 07:05:18;;;;;;;;;;;6.70;96.60;;;;;;5014307;28;19949;-79
2021/11/08 07:07:43;;;;;;;;;;;6.70;96.60;;;;;;5014099;28;19989;-78
2021/11/08 07:10:09;;;;;;;;;;;6.70;96.60;;;;;;5013841;28;19909;-78
2021/11/08 07:12:35;;;;;;;;;;;6.80;96.70;;;;;;5014062;28;19909;-80
2021/11/08 07:15:00;;;;;;;;;;;6.90;96.70;;;;;;5013698;28;19959;-79
2021/11/08 07:17:26;;;;;;;;;;;6.90;96.50;;;;;;5013598;28;19944;-79
2021/11/08 07:19:51;;;;;;;;;;;7.00;96.60;;;;;;5013934;28;20009;-79
2021/11/08 07:22:17;;;;;;;;;;;7.00;96.60;;;;;;5014025;28;20016;-80
2021/11/08 07:24:42;;;;;;;;;;;7.10;96.50;;;;;;5012731;28;19920;-79
2021/11/08 07:27:08;;;;;;;;;;;7.10;96.50;;;;;;5012786;28;19916;-79
2021/11/08 07:29:37;;;;;;;;;;;7.20;96.50;;;;;;5013430;28;19977;-79
2021/11/08 07:32:04;;;;;;;;;;;7.30;96.50;;;;;;5012553;28;20422;-78
2021/11/08 07:34:29;;;;;;;;;;;7.30;96.50;;;;;;5013889;28;19909;-79
2021/11/08 07:36:55;;;;;;;;;;;7.40;96.40;;;;;;5013700;28;19909;-80
2021/11/08 07:39:20;;;;;;;;;;;7.40;96.40;;;;;;5013813;28;20382;-78
2021/11/08 07:41:46;;;;;;;;;;;7.40;96.40;;;;;;5013829;28;20438;-78
2021/11/08 07:44:11;;;;;;;;;;;7.40;96.40;;;;;;5013291;28;19913;-78
2021/11/08 07:46:37;;;;;;;;;;;7.40;96.40;;;;;;5012414;28;20280;-79
2021/11/08 07:49:03;;;;;;;;;;;7.40;96.40;;;;;;5012596;28;19921;-79
2021/11/08 07:51:28;;;;;;;;;;;7.40;96.40;;;;;;5013719;28;19955;-79
2021/11/08 07:53:54;;;;;;;;;;;7.40;96.30;;;;;;5013692;28;19909;-79
2021/11/08 07:56:19;;;;;;;;;;;7.40;96.40;;;;;;5013467;28;19909;-79
2021/11/08 07:58:44;;;;;;;;;;;7.40;96.40;;;;;;5012829;28;19921;-79
2021/11/08 08:01:11;;;;;;;;;;;7.40;96.50;;;;;;5013615;28;20008;-78
2021/11/08 08:03:36;;;;;;;;;;;7.50;96.60;;;;;;5012345;28;19921;-79
2021/11/08 08:06:03;;;;;;;;;;;7.50;96.60;;;;;;5013533;28;20354;-78
2021/11/08 08:08:29;;;;;;;;;;;7.50;96.60;;;;;;5013488;28;20286;-79
2021/11/08 08:10:55;;;;;;;;;;;7.50;96.50;;;;;;5013549;28;19910;-79
2021/11/08 08:13:24;;;;;;;;;;;7.60;96.50;;;;;;5013120;28;20366;-78
2021/11/08 08:15:50;;;;;;;;;;;7.60;96.50;;;;;;5013344;28;19916;-79
2021/11/08 08:18:16;;;;;;;;;;;7.70;96.60;;;;;;5013659;28;19909;-78
2021/11/08 08:20:43;;;;;;;;;;;7.70;96.50;;;;;;5013577;28;19917;-78
2021/11/08 08:23:09;;;;;;;;;;;7.80;96.50;;;;;;5013495;28;19977;-78
2021/11/08 08:25:34;;;;;;;;;;;7.90;96.50;;;;;;5013370;28;19955;-79
2021/11/08 08:28:00;;;;;;;;;;;7.90;96.50;;;;;;5012917;28;19917;-79
2021/11/08 08:30:26;;;;;;;;;;;7.90;96.50;;;;;;5014725;28;19909;-77
2021/11/08 08:32:52;;;;;;;;;;;8.00;96.40;;;;;;5016832;28;19909;-78
2021/11/08 08:35:18;;;;;;;;;;;8.10;96.40;;;;;;5016957;28;19916;-78
2021/11/08 08:37:43;;;;;;;;;;;8.00;96.30;;;;;;5016936;28;19913;-79
2021/11/08 08:40:10;;;;;;;;;;;8.10;96.30;;;;;;5016792;28;19972;-79
2021/11/08 08:42:35;;;;;;;;;;;8.10;96.40;;;;;;5016160;28;19925;-79
2021/11/08 08:45:01;;;;;;;;;;;8.10;96.40;;;;;;5016642;28;19909;-79
2021/11/08 08:47:26;;;;;;;;;;;8.20;96.40;;;;;;5016699;28;19931;-78
2021/11/08 08:49:52;;;;;;;;;;;8.20;96.40;;;;;;5016700;28;19913;-79
2021/11/08 08:52:18;;;;;;;;;;;8.30;96.40;;;;;;5016540;28;19914;-78
2021/11/08 08:54:44;;;;;;;;;;;8.30;96.40;;;;;;5016429;28;20004;-78
2021/11/08 08:57:10;;;;;;;;;;;8.40;96.30;;;;;;5016020;28;20017;-78
2021/11/08 08:59:37;;;;;;;;;;;8.30;96.60;;;;;;5016148;28;20377;-79
2021/11/08 09:02:03;;;;;;;;;;;8.30;96.40;;;;;;5016403;28;19918;-78
2021/11/08 09:04:28;;;;;;;;;;;8.30;96.50;;;;;;5016210;28;19913;-79
2021/11/08 09:06:54;;;;;;;;;;;8.40;96.50;;;;;;5016216;28;20247;-79
2021/11/08 09:09:19;;;;;;;;;;;8.40;96.50;;;;;;5016231;28;19916;-79
2021/11/08 09:11:45;;;;;;;;;;;8.50;96.50;;;;;;5015646;28;19946;-79
2021/11/08 09:14:10;;;;;;;;;;;8.60;96.60;;;;;;5015054;28;20277;-78
2021/11/08 09:16:36;;;;;;;;;;;8.70;96.50;;;;;;5016048;28;20309;-78
2021/11/08 09:19:02;;;;;;;;;;;8.90;96.50;;;;;;5016026;28;19910;-79
2021/11/08 09:21:29;;;;;;;;;;;9.00;96.40;;;;;;5015774;28;20396;-78
2021/11/08 09:23:55;;;;;;;;;;;9.10;96.50;;;;;;5015831;28;19913;-78
2021/11/08 09:26:21;;;;;;;;;;;9.20;96.40;;;;;;5014169;28;19909;-79
2021/11/08 09:28:47;;;;;;;;;;;9.20;96.30;;;;;;5014421;28;19909;-79
2021/11/08 09:31:12;;;;;;;;;;;9.20;96.40;;;;;;5015813;28;19965;-79
2021/11/08 09:33:38;;;;;;;;;;;9.30;96.50;;;;;;5015699;28;20263;-78
2021/11/08 09:36:06;;;;;;;;;;;9.40;96.40;;;;;;5014414;28;20378;-77
2021/11/08 09:38:33;;;;;;;;;;;9.40;96.40;;;;;;5014304;28;19944;-79
2021/11/08 09:40:59;;;;;;;;;;;9.50;96.40;;;;;;5014642;28;20004;-78
2021/11/08 09:43:26;;;;;;;;;;;9.50;96.30;;;;;;5014145;28;20419;-78
2021/11/08 09:45:52;;;;;;;;;;;9.40;96.30;;;;;;5015572;28;19917;-79
2021/11/08 09:48:18;;;;;;;;;;;9.50;96.30;;;;;;5015440;28;19914;-78
2021/11/08 09:50:44;;;;;;;;;;;9.50;96.40;;;;;;5015214;28;19921;-80
2021/11/08 09:53:11;;;;;;;;;;;9.60;96.30;;;;;;5015377;28;19910;-79
2021/11/08 09:55:36;;;;;;;;;;;9.60;96.30;;;;;;5013601;28;19910;-78
2021/11/08 09:58:03;;;;;;;;;;;9.60;96.20;;;;;;5015029;28;20040;-77
2021/11/08 10:00:29;;;;;;;;;;;9.60;96.30;;;;;;5013844;28;20016;-78
2021/11/08 10:02:56;;;;;;;;;;;9.60;96.30;;;;;;5015043;28;20024;-78
2021/11/08 10:05:22;;;;;;;;;;;9.60;96.30;;;;;;5015157;28;19910;-77
2021/11/08 10:07:48;;;;;;;;;;;9.50;96.40;;;;;;5015246;28;19913;-78
2021/11/08 10:10:13;;;;;;;;;;;9.60;96.50;;;;;;5014628;28;20008;-76
2021/11/08 10:12:39;;;;;;;;;;;9.60;96.40;;;;;;5014734;28;19956;-77
2021/11/08 10:15:07;;;;;;;;;;;9.70;96.40;;;;;;5014994;28;19952;-77
2021/11/08 10:17:32;;;;;;;;;;;9.80;96.40;;;;;;5015014;28;19948;-77
2021/11/08 10:19:58;;;;;;;;;;;9.80;96.40;;;;;;5014850;28;19952;-77
2021/11/08 10:22:24;;;;;;;;;;;9.90;96.40;;;;;;5014608;28;19918;-77
2021/11/08 10:24:55;;;;;;;;;;;9.90;96.30;;;;;;5014212;28;19917;-77
2021/11/08 10:27:20;;;;;;;;;;;10.00;96.40;;;;;;5014774;28;19913;-78
2021/11/08 10:29:47;;;;;;;;;;;10.10;96.40;;;;;;5014693;28;19988;-77
2021/11/08 10:32:13;;;;;;;;;;;10.30;96.40;;;;;;5014535;28;19910;-77
2021/11/08 10:35:05;;;;;;;;;;;10.30;96.30;;;;;;5014663;28;19968;-76
2021/11/08 10:37:31;;;;;;;;;;;10.50;96.30;;;;;;5012607;28;19917;-77
2021/11/08 10:39:58;;;;;;;;;;;10.60;96.30;;;;;;5014076;28;19917;-78
2021/11/08 10:42:25;;;;;;;;;;;10.60;96.20;;;;;;5012916;28;19922;-76
2021/11/08 10:44:50;;;;;;;;;;;10.70;96.20;;;;;;5014590;28;20027;-77
2021/11/08 10:47:18;;;;;;;;;;;10.70;96.30;;;;;;5013239;28;19953;-77
2021/11/08 10:49:43;;;;;;;;;;;10.70;96.30;;;;;;5014396;28;19996;-77
2021/11/08 10:52:14;;;;;;;;;;;10.80;96.30;;;;;;5013870;28;19979;-78
2021/11/08 10:54:45;;;;;;;;;;;10.90;96.20;;;;;;5012443;28;19910;-77
2021/11/08 10:57:18;;;;;;;;;;;10.90;96.10;;;;;;5014283;28;19916;-77
2021/11/08 10:59:47;;;;;;;;;;;10.80;96.10;;;;;;5014205;28;19964;-77
2021/11/08 11:02:15;;;;;;;;;;;10.80;96.30;;;;;;5014248;28;20041;-77
2021/11/08 11:04:44;;;;;;;;;;;10.80;96.30;;;;;;5012946;28;19951;-77
2021/11/08 11:07:13;;;;;;;;;;;10.90;96.40;;;;;;5012243;28;20416;-77
2021/11/08 11:09:39;;;;;;;;;;;10.90;96.40;;;;;;5014048;28;19945;-77
2021/11/08 11:12:10;;;;;;;;;;;11.00;96.40;;;;;;5014041;28;19953;-78
2021/11/08 11:14:36;;;;;;;;;;;11.00;96.40;;;;;;5014128;28;19916;-78
2021/11/08 11:17:07;;;;;;;;;;;11.10;96.70;;;;;;5014042;28;19910;-77
2021/11/08 11:19:32;;;;;;;;;;;11.10;96.40;;;;;;5014018;28;19909;-78
2021/11/08 11:22:02;;;;;;;;;;;11.20;96.50;;;;;;5012159;28;19940;-77
2021/11/08 11:24:48;;;;;;;;;;;11.30;96.50;;;;;;5014050;28;20286;-76
2021/11/08 11:27:30;;;;;;;;;;;11.40;96.40;;;;;;5013846;28;19917;-76
2021/11/08 11:30:16;;;;;;;;;;;11.50;96.30;;;;;;5014120;28;20289;-77
2021/11/08 11:32:41;;;;;;;;;;;11.40;96.20;;;;;;5013830;28;19913;-77
2021/11/08 11:35:27;;;;;;;;;;;11.40;96.30;;;;;;5013913;28;20281;-77
2021/11/08 11:37:56;;;;;;;;;;;11.40;96.40;;;;;;5013351;28;20328;-76
2021/11/08 11:40:22;;;;;;;;;;;11.40;96.40;;;;;;5013837;28;19964;-78
2021/11/08 11:42:51;;;;;;;;;;;11.50;96.40;;;;;;5012312;28;19917;-77
2021/11/08 11:45:16;;;;;;;;;;;11.60;96.40;;;;;;5012525;28;19910;-77
2021/11/08 11:47:42;;;;;;;;;;;11.60;96.30;;;;;;5012664;28;19935;-78
2021/11/08 11:50:08;;;;;;;;;;;11.70;96.40;;;;;;5013788;28;19916;-76
2021/11/08 11:52:38;;;;;;;;;;;11.80;96.50;;;;;;5013189;28;19913;-76
2021/11/08 11:55:04;;;;;;;;;;;12.00;96.40;;;;;;5013463;28;19920;-76
2021/11/08 11:57:29;;;;;;;;;;;12.10;96.40;;;;;;5013655;28;19909;-77
2021/11/08 11:59:55;;;;;;;;;;;12.20;96.50;;;;;;5013325;28;20445;-77
2021/11/08 12:02:21;;;;;;;;;;;12.40;96.40;;;;;;5013611;28;20327;-77
2021/11/08 12:04:46;;;;;;;;;;;12.50;96.30;;;;;;5015765;28;19909;-77
2021/11/08 12:07:12;;;;;;;;;;;12.70;96.30;;;;;;5016662;28;19909;-76
2021/11/08 12:09:38;;;;;;;;;;;12.80;96.30;;;;;;5017334;28;19952;-77
2021/11/08 12:12:04;;;;;;;;;;;12.90;96.20;;;;;;5017254;28;19914;-78
2021/11/08 12:14:32;;;;;;;;;;;12.90;96.10;;;;;;5017241;28;19964;-78
2021/11/08 12:16:57;;;;;;;;;;;12.90;96.30;;;;;;5017111;28;20013;-77
2021/11/08 12:19:24;;;;;;;;;;;12.90;96.00;;;;;;5015304;28;20390;-79
2021/11/08 12:21:50;;;;;;;;;;;12.90;96.10;;;;;;5017113;28;20008;-77
2021/11/08 12:24:18;;;;;;;;;;;12.80;96.10;;;;;;5017090;28;19922;-76
2021/11/08 12:26:43;;;;;;;;;;;12.90;96.20;;;;;;5015482;28;19938;-76
2021/11/08 12:29:20;;;;;;;;;;;12.90;96.10;;;;;;5016789;28;20382;-78
2021/11/08 12:31:46;;;;;;;;;;;12.90;96.10;;;;;;5016982;28;19909;-79
2021/11/08 12:34:18;;;;;;;;;;;12.90;96.10;;;;;;5016399;28;19914;-79
2021/11/08 12:37:01;;;;;;;;;;;12.90;96.10;;;;;;5015484;28;20008;-78
2021/11/08 12:39:28;;;;;;;;;;;12.90;96.10;;;;;;5016801;28;20384;-76
2021/11/08 12:41:59;;;;;;;;;;;12.80;96.10;;;;;;5016509;28;19920;-79
2021/11/08 12:44:31;;;;;;;;;;;12.80;96.20;;;;;;5016705;28;20004;-79
2021/11/08 12:46:58;;;;;;;;;;;12.80;96.20;;;;;;5015274;28;19910;-78
2021/11/08 12:49:29;;;;;;;;;;;12.70;96.10;;;;;;5016108;28;19964;-78
2021/11/08 12:51:56;;;;;;;;;;;12.70;96.20;;;;;;5016571;28;20005;-77
2021/11/08 12:54:22;;;;;;;;;;;12.80;96.30;;;;;;5016576;28;19996;-76
2021/11/08 12:56:48;;;;;;;;;;;12.80;96.20;;;;;;5016525;28;19913;-77
2021/11/08 12:59:18;;;;;;;;;;;12.70;96.20;;;;;;5016004;28;19933;-80
2021/11/08 13:01:48;;;;;;;;;;;12.70;96.20;;;;;;5016326;28;19917;-78
2021/11/08 13:04:16;;;;;;;;;;;12.80;96.50;;;;;;5016112;28;20278;-81
2021/11/08 13:06:41;;;;;;;;;;;13.20;96.50;;;;;;5016414;28;19909;-82
2021/11/08 13:09:15;;;;;;;;;;;13.50;96.20;;;;;;5016073;28;19964;-77
2021/11/08 13:11:42;;;;;;;;;;;13.70;95.90;;;;;;5015049;28;19909;-78
2021/11/08 13:14:08;;;;;;;;;;;13.70;95.50;;;;;;5016224;28;19910;-79
2021/11/08 13:16:39;;;;;;;;;;;13.80;95.70;;;;;;5015190;28;19968;-79
2021/11/08 13:19:06;;;;;;;;;;;13.80;95.50;;;;;;5015460;28;19993;-77
2021/11/08 13:21:32;;;;;;;;;;;13.80;95.40;;;;;;5016046;28;20332;-77
2021/11/08 13:23:58;;;;;;;;;;;13.80;95.50;;;;;;5015892;28;20361;-79
2021/11/08 13:26:24;;;;;;;;;;;13.80;95.50;;;;;;5015741;28;19945;-79
2021/11/08 13:28:50;;;;;;;;;;;13.70;95.40;;;;;;5015875;28;20286;-79
2021/11/08 13:31:16;;;;;;;;;;;13.70;95.30;;;;;;5015695;28;20003;-79
2021/11/08 13:33:44;;;;;;;;;;;13.50;95.40;;;;;;5015338;28;19909;-78
2021/11/08 13:36:14;;;;;;;;;;;13.40;95.30;;;;;;5015595;28;19910;-78
2021/11/08 13:38:44;;;;;;;;;;;13.20;95.50;;;;;;5015712;28;19910;-79
2021/11/08 13:41:17;;;;;;;;;;;13.00;95.70;;;;;;5015476;28;19953;-79
2021/11/08 13:43:47;;;;;;;;;;;12.90;95.80;;;;;;5015515;28;19967;-78
2021/11/08 13:46:15;;;;;;;;;;;12.90;95.90;;;;;;5015587;28;20377;-79
2021/11/08 13:48:43;;;;;;;;;;;12.90;95.90;;;;;;5014963;28;19914;-79
2021/11/08 13:51:21;;;;;;;;;;;12.90;96.00;;;;;;5015408;28;19909;-79
2021/11/08 13:53:51;;;;;;;;;;;13.10;96.10;;;;;;5015318;28;19909;-79
2021/11/08 13:56:17;;;;;;;;;;;13.30;96.00;;;;;;5015257;28;19909;-79
2021/11/08 13:58:51;;;;;;;;;;;13.40;95.90;;;;;;5013721;28;19968;-79
2021/11/08 14:01:18;;;;;;;;;;;13.40;95.80;;;;;;5014707;28;19914;-80
2021/11/08 14:03:44;;;;;;;;;;;13.40;95.70;;;;;;5015227;28;19921;-75
2021/11/08 14:06:12;;;;;;;;;;;13.40;95.70;;;;;;5015129;28;20290;-76
2021/11/08 14:08:43;;;;;;;;;;;13.30;95.80;;;;;;5015004;28;19956;-76
2021/11/08 14:11:08;;;;;;;;;;;13.20;95.70;;;;;;5015074;28;19917;-77
2021/11/08 14:13:37;;;;;;;;;;;13.20;95.80;;;;;;5014802;28;19910;-77
2021/11/08 14:16:07;;;;;;;;;;;13.20;95.80;;;;;;5014500;28;19917;-77
2021/11/08 14:18:32;;;;;;;;;;;13.00;95.80;;;;;;5014858;28;19916;-77
2021/11/08 14:21:11;;;;;;;;;;;12.90;95.90;;;;;;5014744;28;19910;-77
2021/11/08 14:23:38;;;;;;;;;;;12.80;96.00;;;;;;5013313;28;20017;-76
2021/11/08 14:26:29;;;;;;;;;;;12.80;96.10;;;;;;5013512;28;19976;-76
2021/11/08 14:28:55;;;;;;;;;;;12.70;96.10;;;;;;5012604;28;19909;-76
2021/11/08 14:31:31;;;;;;;;;;;12.70;96.10;;;;;;5014259;28;19916;-76
2021/11/08 14:34:02;;;;;;;;;;;12.70;96.20;;;;;;5014547;28;19910;-77
2021/11/08 14:36:29;;;;;;;;;;;12.60;96.20;;;;;;5014495;28;19921;-76
2021/11/08 14:39:01;;;;;;;;;;;12.60;96.30;;;;;;5013249;28;19959;-76
2021/11/08 14:41:33;;;;;;;;;;;12.60;96.20;;;;;;5014577;28;20457;-75
2021/11/08 14:44:01;;;;;;;;;;;12.50;96.10;;;;;;5013134;28;20289;-77
2021/11/08 14:46:41;;;;;;;;;;;12.50;96.20;;;;;;5013952;28;19917;-75
2021/11/08 14:49:08;;;;;;;;;;;12.50;96.10;;;;;;5014262;28;19909;-76
2021/11/08 14:51:34;;;;;;;;;;;12.40;96.10;;;;;;5014406;28;19913;-77
2021/11/08 14:54:02;;;;;;;;;;;12.40;96.20;;;;;;5014276;28;20282;-75
2021/11/08 14:56:31;;;;;;;;;;;12.30;96.10;;;;;;5014394;28;19910;-76
2021/11/08 14:59:07;;;;;;;;;;;12.30;96.20;;;;;;5013429;28;20008;-77
2021/11/08 15:01:35;;;;;;;;;;;12.30;96.10;;;;;;5014279;28;20311;-75
2021/11/08 15:04:06;;;;;;;;;;;12.20;96.10;;;;;;5014224;28;19924;-76
2021/11/08 15:06:33;;;;;;;;;;;12.20;96.20;;;;;;5014174;28;19996;-75
2021/11/08 15:09:12;;;;;;;;;;;12.10;96.10;;;;;;5012964;28;20251;-76
2021/11/08 15:11:39;;;;;;;;;;;12.10;96.10;;;;;;5012845;28;20019;-75
2021/11/08 15:14:06;;;;;;;;;;;12.10;96.10;;;;;;5013393;28;19909;-75
2021/11/08 15:16:52;;;;;;;;;;;12.10;96.20;;;;;;5013996;28;19909;-76
2021/11/08 15:19:18;;;;;;;;;;;12.10;96.10;;;;;;5013669;28;19956;-74
2021/11/08 15:21:48;;;;;;;;;;;12.10;96.10;;;;;;5013727;28;19953;-75
2021/11/08 15:24:15;;;;;;;;;;;12.10;96.10;;;;;;5014005;28;20231;-75
2021/11/08 15:26:45;;;;;;;;;;;12.10;96.10;;;;;;5013775;28;20362;-77
2021/11/08 15:29:16;;;;;;;;;;;12.10;96.10;;;;;;5013406;28;19979;-78
2021/11/08 15:31:42;;;;;;;;;;;12.00;96.10;;;;;;5012756;28;19929;-78
2021/11/08 15:34:13;;;;;;;;;;;12.00;96.10;;;;;;5012401;28;20270;-78
2021/11/08 15:36:42;;;;;;;;;;;12.00;96.10;;;;;;5013934;28;19952;-80
2021/11/08 15:39:09;;;;;;;;;;;12.00;96.10;;;;;;5013810;28;20019;-75
2021/11/08 15:41:36;;;;;;;;;;;12.00;96.10;;;;;;5017908;28;19969;-76
2021/11/08 15:44:02;;;;;;;;;;;11.90;96.10;;;;;;5017233;28;19979;-80
2021/11/08 15:46:27;;;;;;;;;;;11.90;96.10;;;;;;5017665;28;20410;-79
2021/11/08 15:48:53;;;;;;;;;;;11.90;96.10;;;;;;5017713;28;19921;-79
2021/11/08 15:51:21;;;;;;;;;;;11.90;96.10;;;;;;5017614;28;20278;-77
2021/11/08 15:53:46;;;;;;;;;;;11.90;96.00;;;;;;5017572;28;20015;-78
2021/11/08 15:56:12;;;;;;;;;;;11.80;96.10;;;;;;5017567;28;20410;-78
2021/11/08 15:58:37;;;;;;;;;;;11.80;96.10;;;;;;5016897;28;19930;-78
2021/11/08 16:01:07;;;;;;;;;;;11.80;96.20;;;;;;5017770;28;20471;-77
2021/11/08 16:03:33;;;;;;;;;;;11.80;96.10;;;;;;5017426;28;19921;-78
2021/11/08 16:05:58;;;;;;;;;;;11.80;96.10;;;;;;5017409;28;19996;-79
2021/11/08 16:08:24;;;;;;;;;;;11.80;96.00;;;;;;5015816;28;19920;-78
2021/11/08 16:10:49;;;;;;;;;;;11.80;96.00;;;;;;5017254;28;20004;-79
2021/11/08 16:13:15;;;;;;;;;;;11.80;96.00;;;;;;5016842;28;19910;-79